Time;durP1;ratioP1;P1;durP2;ratioP2;P2;SDS_P1;SDS_P2;PMS_P1;PMS_P2;Temp;Humidity;BMP_temperature;BMP_pressure;BME280_temperature;BME280_humidity;BME280_pressure;Samples;Min_cycle;Max_cycle;Signal;HPM_P1;HPM_P2
2023/04/27 00:00:31;;;;;;;6.57;5.97;;;6.90;99.90;;;7.62;86.29;98026.16;5116682;28;20205;-64
2023/04/27 00:03:05;;;;;;;5.60;5.00;;;6.80;99.90;;;7.63;86.43;98019.41;5117580;28;20215;-64
2023/04/27 00:05:39;;;;;;;6.00;5.50;;;6.80;99.90;;;7.52;86.46;98013.53;5113465;28;20246;-64
2023/04/27 00:08:12;;;;;;;6.23;5.77;;;6.70;99.90;;;7.49;87.38;98015.00;5116127;28;20229;-64
2023/04/27 00:10:45;;;;;;;6.13;5.53;;;6.70;99.90;;;7.48;87.91;98009.03;5120366;28;20588;-64
2023/04/27 00:13:18;;;;;;;5.50;5.03;;;6.70;99.90;;;7.48;88.18;98011.56;5116980;28;20219;-64
2023/04/27 00:15:53;;;;;;;6.47;5.87;;;6.70;99.90;;;7.48;89.33;98014.09;5116468;28;20232;-64
2023/04/27 00:18:26;;;;;;;6.13;5.63;;;6.70;99.90;;;7.51;88.96;98006.69;5117845;28;20769;-64
2023/04/27 00:21:00;;;;;;;6.67;6.07;;;6.70;99.90;;;7.39;88.21;98003.28;5117422;28;20215;-64
2023/04/27 00:23:33;;;;;;;6.77;6.10;;;6.60;99.90;;;7.43;88.82;98001.06;5116019;28;20678;-64
2023/04/27 00:26:06;;;;;;;6.43;5.83;;;6.70;99.90;;;7.42;88.64;98001.84;5117084;28;20703;-64
2023/04/27 00:28:39;;;;;;;6.50;5.90;;;6.70;99.90;;;7.50;89.09;98011.66;5114359;28;20452;-64
2023/04/27 00:31:13;;;;;;;6.57;6.07;;;6.80;99.90;;;7.54;90.19;98006.91;5112615;28;20232;-64
2023/04/27 00:33:46;;;;;;;7.10;6.47;;;6.80;99.90;;;7.40;89.23;98005.94;5114040;28;20201;-64
2023/04/27 00:36:19;;;;;;;7.57;5.40;;;6.70;99.90;;;7.42;88.47;97996.75;5114876;28;20608;-64
2023/04/27 00:38:52;;;;;;;6.63;5.93;;;6.60;99.90;;;7.30;88.86;98006.06;5115891;28;20700;-64
2023/04/27 00:41:25;;;;;;;8.00;6.63;;;6.60;99.90;;;7.33;89.40;97995.22;5117422;28;20205;-64
2023/04/27 00:43:58;;;;;;;6.57;6.07;;;6.60;99.90;;;7.35;89.36;97998.75;5115183;28;20219;-64
2023/04/27 00:46:33;;;;;;;6.70;6.20;;;6.60;99.90;;;7.37;89.57;97998.06;5112046;28;20201;-64
2023/04/27 00:49:06;;;;;;;7.30;6.60;;;6.60;99.90;;;7.41;90.14;97991.53;5116305;28;20223;-64
2023/04/27 00:51:39;;;;;;;6.90;6.03;;;6.70;99.90;;;7.40;90.39;97993.22;5117686;28;20212;-64
2023/04/27 00:54:13;;;;;;;6.50;5.90;;;6.60;99.90;;;7.40;90.02;97990.66;5112456;28;20732;-64
2023/04/27 00:56:48;;;;;;;7.00;6.40;;;6.60;99.90;;;7.46;90.93;97982.59;5114893;28;20224;-65
2023/04/27 00:59:21;;;;;;;6.97;6.37;;;6.70;99.90;;;7.53;89.72;97989.03;5116728;28;20604;-64
2023/04/27 01:01:56;;;;;;;6.53;5.90;;;6.60;99.90;;;7.42;87.36;97988.25;5111955;28;20201;-64
2023/04/27 01:04:30;;;;;;;6.23;5.67;;;6.50;99.90;;;7.29;88.20;97993.22;5109513;28;20621;-64
2023/04/27 01:07:04;;;;;;;6.43;5.93;;;6.40;99.90;;;7.13;89.02;97989.59;5114265;28;20212;-64
2023/04/27 01:09:37;;;;;;;5.97;5.50;;;6.30;99.90;;;7.16;89.62;97996.56;5115926;28;20604;-64
2023/04/27 01:12:10;;;;;;;6.70;6.10;;;6.30;99.90;;;7.18;90.08;97992.44;5115059;28;20212;-64
2023/04/27 01:14:43;;;;;;;7.03;6.33;;;6.30;99.90;;;7.18;90.20;97997.53;5116167;28;20546;-64
2023/04/27 01:17:18;;;;;;;6.90;6.33;;;6.30;99.90;;;6.98;90.60;98001.16;5116548;28;20235;-64
2023/04/27 01:19:54;;;;;;;7.20;6.60;;;6.20;99.90;;;6.85;91.16;97998.50;5113517;28;20239;-64
2023/04/27 01:22:27;;;;;;;7.57;6.83;;;6.10;99.90;;;6.76;91.46;97997.06;5116650;28;20222;-64
2023/04/27 01:25:01;;;;;;;7.07;6.43;;;6.00;99.90;;;6.64;92.23;98002.88;5116171;28;20200;-64
2023/04/27 01:27:34;;;;;;;7.07;6.47;;;6.00;99.90;;;6.61;92.48;97995.03;5115519;28;20200;-64
2023/04/27 01:30:08;;;;;;;7.33;6.63;;;6.00;99.90;;;6.70;91.99;97998.28;5115907;28;20215;-64
2023/04/27 01:32:41;;;;;;;6.73;6.13;;;6.00;99.90;;;6.76;91.95;97994.53;5111844;28;21039;-64
2023/04/27 01:35:14;;;;;;;7.37;6.37;;;6.10;99.90;;;6.82;91.60;97998.28;5114194;28;20204;-64
2023/04/27 01:37:47;;;;;;;6.60;6.10;;;6.10;99.90;;;6.88;92.00;97996.19;5117287;28;20707;-64
2023/04/27 01:40:22;;;;;;;7.30;6.60;;;6.20;99.90;;;6.97;92.16;97995.19;5110985;28;20208;-64
2023/04/27 01:42:55;;;;;;;8.30;7.03;;;6.30;99.90;;;6.95;92.39;98000.94;5114019;28;20199;-64
2023/04/27 01:45:28;;;;;;;7.10;6.50;;;6.30;99.90;;;6.94;91.39;97999.19;5114465;28;20215;-64
2023/04/27 01:48:01;;;;;;;6.67;6.17;;;6.20;99.90;;;6.92;91.28;97993.97;5111890;28;20228;-64
2023/04/27 01:50:34;;;;;;;6.93;6.40;;;6.20;99.90;;;6.91;91.16;97997.28;5114212;28;20836;-64
2023/04/27 01:53:07;;;;;;;8.93;6.90;;;6.20;99.90;;;6.90;91.33;97998.09;5114180;28;20215;-64
2023/04/27 01:55:41;;;;;;;7.23;6.23;;;6.20;99.90;;;6.85;91.71;97994.31;5116471;28;20229;-64
2023/04/27 01:58:14;;;;;;;8.00;6.57;;;6.10;99.90;;;6.85;91.00;97993.44;5116576;28;20234;-64
2023/04/27 02:00:47;;;;;;;7.03;6.40;;;6.10;99.90;;;6.76;91.23;98003.81;5111839;28;20215;-64
2023/04/27 02:03:20;;;;;;;6.87;6.37;;;6.10;99.90;;;6.58;92.25;98004.97;5116086;28;20211;-64
2023/04/27 02:05:54;;;;;;;6.40;5.80;;;5.90;99.90;;;6.68;92.08;97998.16;5115267;28;20209;-64
2023/04/27 02:08:27;;;;;;;6.67;5.83;;;6.00;99.90;;;6.61;92.39;98008.63;5112744;28;20609;-64
2023/04/27 02:11:01;;;;;;;7.30;6.63;;;5.90;99.90;;;6.63;92.40;98006.19;5115000;28;20212;-64
2023/04/27 02:13:34;;;;;;;7.13;6.43;;;6.00;99.90;;;6.54;92.45;98007.28;5110976;28;20204;-64
2023/04/27 02:16:08;;;;;;;7.40;6.70;;;5.90;99.90;;;6.60;92.27;98011.94;5115453;28;20695;-64
2023/04/27 02:18:41;;;;;;;6.40;5.90;;;5.90;99.90;;;6.66;92.92;98007.31;5116989;28;20704;-64
2023/04/27 02:21:14;;;;;;;7.23;6.63;;;6.00;99.90;;;6.71;93.47;98016.16;5113824;28;20197;-64
2023/04/27 02:23:47;;;;;;;7.10;6.50;;;6.00;99.90;;;6.81;93.55;98011.75;5116013;28;20274;-64
2023/04/27 02:26:28;;;;;;;6.70;6.10;;;6.10;99.90;;;6.85;92.72;98017.19;5115695;28;20201;-64
2023/04/27 02:29:02;;;;;;;7.37;6.77;;;6.10;99.90;;;6.81;92.68;98022.81;5115227;28;20339;-64
2023/04/27 02:31:35;;;;;;;6.83;6.23;;;6.00;99.90;;;6.82;93.45;98016.06;5114059;28;20212;-64
2023/04/27 02:34:08;;;;;;;7.47;6.07;;;6.10;99.90;;;6.84;92.97;98014.50;5116188;28;20205;-64
2023/04/27 02:36:41;;;;;;;6.60;6.00;;;6.10;99.90;;;6.86;93.06;98015.50;5114063;28;20224;-64
2023/04/27 02:39:15;;;;;;;7.73;6.27;;;6.10;99.90;;;6.85;93.13;98018.84;5116010;28;20250;-64
2023/04/27 02:41:49;;;;;;;7.60;6.90;;;6.10;99.90;;;6.87;93.53;98015.66;5115019;28;20209;-64
2023/04/27 02:44:22;;;;;;;7.57;6.87;;;6.10;99.90;;;6.90;93.49;98026.03;5114378;28;20216;-64
2023/04/27 02:46:55;;;;;;;7.40;6.67;;;6.10;99.90;;;6.90;94.32;98018.41;5113991;28;20197;-64
2023/04/27 02:49:28;;;;;;;8.17;7.47;;;6.20;99.90;;;6.93;94.46;98023.72;5114288;28;20723;-64
2023/04/27 02:52:02;;;;;;;9.17;7.40;;;6.20;99.90;;;6.96;94.35;98023.06;5113254;28;20645;-64
2023/04/27 02:54:35;;;;;;;7.70;7.10;;;6.30;99.90;;;6.95;94.70;98021.25;5120276;28;20212;-64
2023/04/27 02:57:09;;;;;;;7.90;7.10;;;6.20;99.90;;;6.97;94.17;98022.28;5111493;28;20232;-64
2023/04/27 02:59:42;;;;;;;8.10;7.33;;;6.20;99.90;;;6.97;94.09;98028.22;5117098;28;20242;-64
2023/04/27 03:02:15;;;;;;;7.97;7.23;;;6.20;99.90;;;6.99;94.73;98034.31;5116366;28;20233;-64
2023/04/27 03:04:53;;;;;;;7.87;7.17;;;6.20;99.90;;;7.00;95.11;98035.19;5114202;28;20205;-64
2023/04/27 03:07:26;;;;;;;7.10;6.40;;;6.20;99.90;;;7.04;94.29;98026.13;5126258;28;20196;-64
2023/04/27 03:09:59;;;;;;;7.50;6.87;;;6.20;99.90;;;7.05;94.43;98031.34;5118760;28;20220;-64
2023/04/27 03:12:34;;;;;;;7.43;6.77;;;6.20;99.90;;;7.00;94.29;98036.09;5112130;28;20595;-64
2023/04/27 03:15:08;;;;;;;6.67;6.00;;;6.20;99.90;;;6.97;93.55;98037.53;5117477;28;20204;-64
2023/04/27 03:17:42;;;;;;;6.43;5.97;;;6.10;99.90;;;6.92;94.48;98027.00;5117486;28;20232;-64
2023/04/27 03:20:15;;;;;;;7.47;6.47;;;6.10;99.90;;;6.91;93.91;98032.00;5117573;28;20297;-63
2023/04/27 03:22:48;;;;;;;6.97;6.37;;;6.10;99.90;;;6.82;93.77;98028.78;5116676;28;20200;-63
2023/04/27 03:25:21;;;;;;;7.13;6.43;;;6.00;99.90;;;6.87;93.31;98032.56;5118254;28;20208;-64
2023/04/27 03:27:55;;;;;;;7.37;6.67;;;6.00;99.90;;;6.85;93.41;98034.09;5116453;28;20530;-64
2023/04/27 03:30:28;;;;;;;8.17;7.37;;;6.10;99.90;;;6.87;94.10;98032.56;5117763;28;20200;-64
2023/04/27 03:33:02;;;;;;;7.90;7.10;;;6.10;99.90;;;6.87;93.90;98037.63;5117761;28;20240;-64
2023/04/27 03:35:35;;;;;;;7.83;7.13;;;6.10;99.90;;;6.88;94.09;98040.25;5119304;28;20205;-64
2023/04/27 03:38:08;;;;;;;7.90;7.07;;;6.10;99.90;;;6.76;94.04;98042.78;5116333;28;20236;-64
2023/04/27 03:40:41;;;;;;;7.60;6.90;;;6.00;99.90;;;6.79;94.57;98039.59;5109273;28;20208;-65
2023/04/27 03:43:16;;;;;;;8.13;7.40;;;6.00;99.90;;;6.81;95.01;98043.13;5113366;28;20205;-64
2023/04/27 03:45:49;;;;;;;8.10;7.30;;;6.00;99.90;;;6.86;94.15;98046.00;5115180;28;20208;-65
2023/04/27 03:48:22;;;;;;;8.13;7.43;;;6.00;99.90;;;6.84;94.88;98037.38;5115690;28;20229;-66
2023/04/27 03:50:55;;;;;;;6.80;6.23;;;6.10;99.90;;;6.91;94.37;98030.31;5116111;28;20204;-65
2023/04/27 03:53:28;;;;;;;8.40;6.70;;;6.00;99.90;;;6.93;94.37;98038.09;5116454;28;20209;-66
2023/04/27 03:56:03;;;;;;;7.50;6.90;;;6.10;99.90;;;6.86;94.50;98033.31;5111308;28;20213;-64
2023/04/27 03:58:37;;;;;;;7.33;6.67;;;6.00;99.90;;;6.82;94.39;98033.84;5111498;28;20232;-65
2023/04/27 04:01:10;;;;;;;7.80;6.60;;;6.00;99.90;;;6.84;94.43;98032.28;5114584;28;20214;-65
2023/04/27 04:03:43;;;;;;;7.87;7.17;;;6.00;99.90;;;6.87;94.15;98037.63;5131074;28;20691;-65
2023/04/27 04:06:16;;;;;;;7.20;6.60;;;6.10;99.90;;;6.84;94.29;98029.75;5114131;28;20213;-62
2023/04/27 04:08:49;;;;;;;7.50;6.90;;;6.00;99.90;;;6.74;93.35;98041.78;5111843;28;20252;-65
2023/04/27 04:11:22;;;;;;;9.60;7.10;;;6.00;99.90;;;6.74;94.41;98044.31;5114141;28;20228;-63
2023/04/27 04:13:56;;;;;;;7.70;7.10;;;6.00;99.90;;;6.70;94.37;98044.88;5109619;28;20201;-62
2023/04/27 04:16:30;;;;;;;8.17;7.37;;;5.90;99.90;;;6.67;94.88;98039.56;5114347;28;20210;-65
2023/04/27 04:19:03;;;;;;;8.30;7.33;;;5.90;99.90;;;6.59;94.83;98039.75;5113564;28;20295;-67
2023/04/27 04:21:36;;;;;;;7.53;6.83;;;5.80;99.90;;;6.57;94.98;98042.16;5110442;28;20214;-66
2023/04/27 04:24:10;;;;;;;7.63;6.97;;;5.80;99.90;;;6.59;95.48;98050.81;5114282;28;20205;-66
2023/04/27 04:26:43;;;;;;;7.53;6.93;;;5.80;99.90;;;6.57;94.96;98044.72;5113194;28;20303;-64
2023/04/27 04:29:18;;;;;;;7.83;7.10;;;5.80;99.90;;;6.63;95.11;98046.81;5113538;28;20224;-66
2023/04/27 04:31:51;;;;;;;8.40;7.60;;;5.80;99.90;;;6.68;94.96;98054.03;5115951;28;20204;-65
2023/04/27 04:34:24;;;;;;;8.60;7.80;;;5.90;99.90;;;6.75;95.32;98043.56;5109455;28;20201;-65
2023/04/27 04:36:57;;;;;;;8.83;7.93;;;6.00;99.90;;;6.73;95.08;98051.84;5108050;28;20858;-65
2023/04/27 04:39:32;;;;;;;7.50;6.90;;;6.00;99.90;;;6.77;94.79;98047.09;5116563;28;20232;-66
2023/04/27 04:42:05;;;;;;;7.17;6.57;;;6.00;99.90;;;6.82;94.69;98059.25;5115028;28;20208;-65
2023/04/27 04:44:39;;;;;;;8.90;8.07;;;6.00;99.90;;;6.83;94.69;98059.34;5116851;28;20205;-64
2023/04/27 04:47:12;;;;;;;7.80;7.10;;;6.10;99.90;;;6.73;94.37;98060.34;5111762;28;20200;-65
2023/04/27 04:49:45;;;;;;;8.07;7.27;;;6.00;99.90;;;6.85;95.17;98060.38;5116728;28;20231;-65
2023/04/27 04:52:18;;;;;;;7.60;6.90;;;6.10;99.90;;;6.94;95.61;98063.59;5112879;28;20216;-64
2023/04/27 04:54:52;;;;;;;8.73;8.03;;;6.20;99.90;;;7.01;96.55;98062.41;5113108;28;20209;-64
2023/04/27 04:57:25;;;;;;;8.83;7.33;;;6.20;99.90;;;7.05;96.33;98060.97;5116407;28;20651;-64
2023/04/27 05:00:00;;;;;;;10.10;7.43;;;6.30;99.90;;;6.94;94.76;98068.66;5111980;28;20256;-65
2023/04/27 05:02:33;;;;;;;8.17;7.50;;;6.20;99.90;;;6.99;94.53;98074.97;5113528;28;20309;-65
2023/04/27 05:05:08;;;;;;;8.70;7.93;;;6.20;99.90;;;7.10;95.18;98075.78;5102354;28;20334;-65
2023/04/27 05:07:41;;;;;;;7.43;6.80;;;6.30;99.90;;;7.18;94.95;98074.69;5108997;28;20200;-65
2023/04/27 05:10:14;;;;;;;8.77;7.93;;;6.40;99.90;;;7.21;94.93;98067.28;5100467;28;20224;-65
2023/04/27 05:12:47;;;;;;;9.03;8.20;;;6.40;99.90;;;7.21;94.17;98072.38;5115519;28;20255;-65
2023/04/27 05:15:21;;;;;;;8.67;7.80;;;6.40;99.90;;;7.20;94.25;98070.59;5111532;28;20557;-65
2023/04/27 05:17:54;;;;;;;8.63;7.87;;;6.40;99.90;;;7.30;94.69;98076.38;5112705;28;20729;-64
2023/04/27 05:20:27;;;;;;;8.40;7.50;;;6.50;99.90;;;7.31;93.88;98081.53;5110160;28;20212;-66
2023/04/27 05:23:00;;;;;;;9.17;8.40;;;6.60;99.90;;;7.37;93.36;98076.03;5112926;28;20679;-64
2023/04/27 05:25:40;;;;;;;8.63;7.93;;;6.60;99.90;;;7.36;92.21;98074.25;5113829;28;20215;-65
2023/04/27 05:28:13;;;;;;;8.30;7.50;;;6.50;99.90;;;7.40;92.22;98076.25;5114785;28;20221;-66
2023/04/27 05:30:47;;;;;;;7.77;6.87;;;6.60;99.90;;;7.53;92.28;98070.41;5111883;28;20211;-65
2023/04/27 05:33:21;;;;;;;9.00;8.33;;;6.70;99.90;;;7.55;91.71;98069.72;5115320;28;20334;-65
2023/04/27 05:35:54;;;;;;;8.77;7.93;;;6.80;99.90;;;7.38;91.22;98073.59;5115306;28;20217;-65
2023/04/27 05:38:27;;;;;;;8.67;7.97;;;6.70;99.90;;;7.43;91.46;98068.84;5126813;28;20224;-64
2023/04/27 05:41:00;;;;;;;8.67;7.87;;;6.60;99.90;;;7.62;90.04;98061.75;5111158;28;20212;-65
2023/04/27 05:43:33;;;;;;;8.90;8.10;;;6.80;99.90;;;7.71;91.42;98060.66;5117469;28;20205;-66
2023/04/27 05:46:08;;;;;;;8.40;7.60;;;6.90;99.90;;;7.76;90.38;98061.88;5114773;28;20219;-66
2023/04/27 05:48:41;;;;;;;8.47;7.77;;;7.00;99.90;;;7.79;88.83;98067.16;5116306;28;20250;-65
2023/04/27 05:51:14;;;;;;;8.17;7.37;;;7.00;99.90;;;7.72;88.35;98062.41;5116437;28;20212;-64
2023/04/27 05:53:47;;;;;;;8.97;8.13;;;7.00;99.90;;;7.92;88.13;98074.00;5117787;28;20673;-63
2023/04/27 05:56:20;;;;;;;8.70;8.00;;;7.10;99.90;;;7.97;88.98;98067.59;5116785;28;20201;-65
2023/04/27 05:58:53;;;;;;;9.53;8.63;;;7.20;99.90;;;8.09;88.81;98078.59;5115135;28;20239;-66
2023/04/27 06:01:28;;;;;;;9.93;8.80;;;7.30;99.90;;;8.13;87.61;98078.94;5113199;28;20212;-65
2023/04/27 06:04:01;;;;;;;8.63;7.93;;;7.30;99.90;;;8.21;85.55;98076.03;5123431;28;20680;-65
2023/04/27 06:06:34;;;;;;;8.00;7.40;;;7.30;99.90;;;8.28;84.61;98081.66;5113827;28;20209;-65
2023/04/27 06:09:07;;;;;;;7.93;7.23;;;7.40;99.90;;;8.44;83.70;98086.22;5110759;28;20227;-66
2023/04/27 06:11:40;;;;;;;8.57;7.30;;;7.50;99.90;;;8.30;83.06;98092.84;5114575;28;20251;-66
2023/04/27 06:14:13;;;;;;;9.33;8.30;;;7.50;99.90;;;8.40;83.26;98094.41;5114334;28;20205;-65
2023/04/27 06:16:48;;;;;;;9.10;8.20;;;7.50;99.90;;;8.42;83.27;98090.31;5114213;29;20205;-64
2023/04/27 06:19:21;;;;;;;10.43;8.77;;;7.60;99.90;;;8.62;83.53;98095.88;5110357;28;20730;-65
2023/04/27 06:21:54;;;;;;;8.37;7.53;;;7.80;99.90;;;8.73;82.28;98105.16;5116855;28;20223;-65
2023/04/27 06:24:27;;;;;;;8.70;7.90;;;7.90;99.90;;;8.67;79.58;98105.59;5109840;28;20205;-65
2023/04/27 06:27:00;;;;;;;9.07;8.13;;;7.90;99.90;;;8.90;79.88;98099.53;5114337;28;20546;-66
2023/04/27 06:29:33;;;;;;;9.03;8.23;;;8.10;99.90;;;9.26;78.56;98097.63;5111918;28;20232;-65
2023/04/27 06:32:08;;;;;;;8.40;7.70;;;8.30;99.90;;;9.38;77.13;98111.19;5114407;28;20213;-64
2023/04/27 06:34:41;;;;;;;8.03;7.13;;;8.50;99.90;;;9.41;78.56;98111.41;5125982;28;20204;-66
2023/04/27 06:37:15;;;;;;;8.50;7.30;;;8.60;99.90;;;9.64;77.42;98104.34;5112006;28;20216;-67
2023/04/27 06:39:48;;;;;;;8.02;7.22;;;8.70;99.90;;;9.69;76.67;98105.53;5111883;28;20677;-65
2023/04/27 06:42:21;;;;;;;8.80;7.18;;;8.80;99.90;;;9.85;76.74;98103.19;5117519;28;20212;-66
2023/04/27 06:44:55;;;;;;;7.67;6.97;;;8.90;99.90;;;10.06;74.62;98095.97;5119371;28;20204;-66
2023/04/27 06:47:29;;;;;;;7.68;6.82;;;9.00;99.90;;;10.14;74.17;98096.47;5114958;28;20209;-65
2023/04/27 06:50:03;;;;;;;8.18;7.47;;;9.10;99.90;;;10.16;75.09;98092.34;5113335;28;20860;-65
2023/04/27 06:52:36;;;;;;;8.88;7.80;;;9.20;99.90;;;10.47;73.36;98094.25;5117300;28;20691;-64
2023/04/27 06:55:09;;;;;;;8.07;7.00;;;9.40;99.90;;;10.52;73.82;98088.63;5113355;28;20204;-66
2023/04/27 06:57:42;;;;;;;9.00;7.35;;;9.50;99.90;;;10.58;74.38;98091.56;5113850;28;20679;-66
2023/04/27 07:00:16;;;;;;;7.55;6.90;;;9.60;99.90;;;10.79;72.29;98094.53;5112811;28;20220;-66
2023/04/27 07:02:51;;;;;;;8.85;8.05;;;9.70;99.90;;;10.98;73.23;98098.19;5111783;28;20228;-65
2023/04/27 07:05:24;;;;;;;7.53;6.93;;;9.90;99.90;;;11.23;72.63;98096.25;5115387;28;20208;-66
2023/04/27 07:07:57;;;;;;;7.38;6.68;;;10.00;99.90;;;11.37;71.72;98088.50;5114720;28;20232;-63
2023/04/27 07:10:33;;;;;;;7.43;6.43;;;10.20;99.90;;;11.44;71.20;98093.16;5114696;28;20216;-66
2023/04/27 07:13:06;;;;;;;6.68;5.82;;;10.30;99.90;;;11.56;71.91;98086.22;5120569;28;20535;-65
2023/04/27 07:15:41;;;;;;;6.43;5.93;;;10.50;99.90;;;11.73;69.82;98095.72;5120340;28;20196;-66
2023/04/27 07:18:15;;;;;;;6.55;6.05;;;10.70;99.90;;;12.02;65.23;98091.38;5112038;28;20231;-66
2023/04/27 07:20:48;;;;;;;6.72;5.88;;;10.80;99.90;;;11.92;62.25;98091.66;5112462;28;20204;-66
2023/04/27 07:23:21;;;;;;;6.50;5.97;;;10.80;99.90;;;12.09;64.10;98092.59;5117626;28;20555;-64
2023/04/27 07:25:55;;;;;;;6.95;6.35;;;11.00;99.90;;;12.25;64.94;98094.31;5117928;28;20208;-63
2023/04/27 07:28:29;;;;;;;7.93;6.45;;;11.20;99.90;;;12.43;61.45;98092.72;5112924;28;20308;-64
2023/04/27 07:31:05;;;;;;;6.55;5.88;;;11.30;99.90;;;12.46;61.84;98095.44;5125528;28;20217;-63
2023/04/27 07:33:39;;;;;;;5.85;5.28;;;11.40;99.90;;;12.63;61.55;98097.22;5114804;28;20200;-64
2023/04/27 07:36:12;;;;;;;6.47;5.30;;;11.60;99.90;;;12.76;59.74;98096.22;5115728;28;20204;-63
2023/04/27 07:38:45;;;;;;;7.22;6.07;;;11.70;99.90;;;12.88;62.70;98090.81;5109114;28;20243;-65
2023/04/27 07:41:19;;;;;;;6.88;6.20;;;11.90;99.90;;;13.03;58.92;98091.59;5111650;28;20200;-65
2023/04/27 07:43:52;;;;;;;6.50;5.38;;;11.90;99.90;;;13.20;60.22;98089.00;5114954;28;20667;-64
2023/04/27 07:46:25;;;;;;;6.20;5.63;;;12.00;99.90;;;13.29;57.63;98084.38;5112663;28;20661;-64
2023/04/27 07:48:59;;;;;;;6.68;5.97;;;12.10;99.90;;;13.35;56.84;98088.94;5115126;28;20224;-62
2023/04/27 07:51:33;;;;;;;6.70;5.68;;;12.30;99.90;;;13.54;56.23;98086.47;5111948;28;20291;-65
2023/04/27 07:54:06;;;;;;;7.57;5.60;;;12.40;99.90;;;13.85;56.92;98075.09;5112047;28;20207;-65
2023/04/27 07:56:41;;;;;;;5.78;5.28;;;12.70;99.90;;;13.96;57.11;98079.94;5117074;28;20204;-65
2023/04/27 07:59:15;;;;;;;5.82;5.35;;;12.80;99.90;;;14.04;56.38;98081.97;5112604;28;20231;-66
2023/04/27 08:01:48;;;;;;;6.93;5.95;;;12.90;99.90;;;14.01;54.67;98081.84;5118741;28;20209;-65
2023/04/27 08:04:23;;;;;;;5.80;5.28;;;12.80;99.90;;;14.30;54.82;98078.94;5111232;28;20208;-65
2023/04/27 08:06:56;;;;;;;6.38;5.20;;;13.00;99.90;;;14.68;55.35;98082.41;5114301;28;20251;-65
2023/04/27 08:09:31;;;;;;;6.70;5.60;;;13.30;99.90;;;14.76;55.01;98086.16;5108715;28;20252;-64
2023/04/27 08:12:05;;;;;;;6.50;5.90;;;13.50;99.90;;;15.19;56.85;98088.03;5118354;28;20208;-65
2023/04/27 08:14:38;;;;;;;6.07;5.47;;;14.00;99.90;;;15.51;51.57;98083.38;5110349;28;20697;-64
2023/04/27 08:17:11;;;;;;;6.50;5.45;;;14.40;99.40;;;15.92;53.43;98074.75;5114950;28;20219;-65
2023/04/27 08:19:45;;;;;;;7.28;5.90;;;14.90;99.90;;;16.32;52.17;98075.44;5114670;28;20323;-63
2023/04/27 08:22:18;;;;;;;6.32;5.32;;;15.40;99.90;;;16.55;49.09;98072.00;5114199;28;20669;-65
2023/04/27 08:24:51;;;;;;;7.15;5.38;;;15.60;97.00;;;16.19;47.20;98074.06;5113600;28;20574;-61
2023/04/27 08:27:24;;;;;;;7.28;5.20;;;15.30;96.00;;;16.55;49.23;98074.56;5116586;28;20292;-65
2023/04/27 08:29:57;;;;;;;5.97;5.28;;;15.50;97.70;;;16.55;49.58;98074.56;5113602;28;20220;-64
2023/04/27 08:32:30;;;;;;;5.57;5.07;;;15.60;98.20;;;16.85;49.65;98074.88;5117883;28;20250;-64
2023/04/27 08:35:06;;;;;;;7.15;5.43;;;15.90;97.80;;;16.93;45.43;98062.19;5114714;28;20641;-65
2023/04/27 08:37:40;;;;;;;5.90;5.05;;;15.90;94.80;;;17.14;47.18;98061.19;5108569;28;20200;-65
2023/04/27 08:40:14;;;;;;;4.85;4.35;;;16.10;95.60;;;17.36;46.33;98053.34;5107755;28;20260;-65
2023/04/27 08:42:56;;;;;;;5.45;4.60;;;16.40;94.40;;;17.35;41.75;98061.94;5102604;28;20214;-65
2023/04/27 08:45:29;;;;;;;5.55;5.05;;;16.40;91.80;;;16.96;42.63;98056.28;5108780;28;20211;-65
2023/04/27 08:48:02;;;;;;;4.82;4.43;;;16.10;92.10;;;17.33;42.99;98055.81;5105492;28;20229;-65
2023/04/27 08:50:40;;;;;;;5.35;4.85;;;16.50;92.50;;;17.01;42.69;98050.44;5112368;28;20296;-65
2023/04/27 08:53:20;;;;;;;5.63;4.55;;;16.20;92.10;;;16.92;44.01;98039.81;5117711;28;20207;-65
2023/04/27 08:55:54;;;;;;;5.47;5.07;;;16.00;92.70;;;16.95;44.83;98039.91;5116039;28;20208;-65
2023/04/27 08:58:37;;;;;;;5.60;5.10;;;16.00;93.10;;;17.13;44.52;98049.09;5117487;28;20227;-65
2023/04/27 09:01:10;;;;;;;5.43;4.93;;;16.10;93.10;;;17.13;44.46;98033.59;5117141;28;20589;-65
2023/04/27 09:03:45;;;;;;;6.35;4.93;;;16.10;92.80;;;17.06;44.14;98037.69;5118030;28;20204;-65
2023/04/27 09:06:30;;;;;;;5.60;5.13;;;16.10;92.80;;;17.13;44.89;98043.94;5110852;28;20200;-65
2023/04/27 09:09:05;;;;;;;5.22;4.78;;;16.20;93.70;;;17.33;42.24;98048.06;5114205;28;20225;-64
2023/04/27 09:11:39;;;;;;;5.13;4.35;;;16.40;91.00;;;17.49;39.98;98039.13;5113043;28;20216;-65
2023/04/27 09:14:18;;;;;;;5.63;4.35;;;16.80;88.20;;;17.43;42.30;98039.81;5116389;28;20205;-65
2023/04/27 09:16:56;;;;;;;6.22;4.70;;;16.60;90.80;;;17.53;39.82;98041.84;5114752;28;20215;-64
2023/04/27 09:19:30;;;;;;;5.40;4.40;;;16.70;89.90;;;17.56;40.89;98035.91;5116573;28;20261;-65
2023/04/27 09:22:07;;;;;;;5.90;4.35;;;16.80;89.20;;;17.79;39.37;98036.69;5114161;28;20200;-65
2023/04/27 09:24:51;;;;;;;6.47;4.55;;;17.10;86.80;;;17.69;39.59;98042.38;5113859;28;20209;-65
2023/04/27 09:27:24;;;;;;;5.60;3.85;;;17.00;87.40;;;17.67;40.62;98038.84;5113829;28;20197;-64
2023/04/27 09:29:57;;;;;;;6.82;4.50;;;17.00;89.20;;;17.77;42.55;98040.91;5117661;28;20370;-65
2023/04/27 09:32:30;;;;;;;5.07;4.10;;;16.90;90.80;;;17.75;39.52;98038.25;5106760;28;20295;-64
2023/04/27 09:35:04;;;;;;;4.80;4.22;;;17.00;87.70;;;17.58;42.96;98038.56;5108718;28;20505;-64
2023/04/27 09:37:38;;;;;;;6.05;4.10;;;16.80;91.60;;;17.72;43.12;98042.47;5109704;28;20216;-64
2023/04/27 09:40:13;;;;;;;5.25;3.97;;;17.00;91.00;;;17.86;40.50;98045.53;5122039;28;20223;-64
2023/04/27 09:42:46;;;;;;;4.85;3.72;;;17.10;89.00;;;18.11;37.30;98041.97;5114264;28;20238;-64
2023/04/27 09:45:20;;;;;;;4.63;3.67;;;17.40;82.90;;;18.06;36.54;98043.56;5108999;28;20662;-64
2023/04/27 09:47:53;;;;;;;4.65;3.50;;;17.60;81.80;;;17.76;38.45;98039.13;5107243;28;20228;-65
2023/04/27 09:50:26;;;;;;;4.50;4.10;;;17.20;85.00;;;17.16;38.95;98044.03;5111232;28;20657;-65
2023/04/27 09:53:01;;;;;;;4.38;3.97;;;16.50;84.70;;;17.15;41.49;98031.97;5106216;28;20208;-64
2023/04/27 09:55:40;;;;;;;4.35;3.92;;;16.40;88.80;;;16.96;39.33;98031.31;5115339;28;20663;-65
2023/04/27 09:59:06;;;;;;;5.00;3.60;;;16.50;84.60;;;17.22;37.81;98028.75;5115872;28;20677;-65
2023/04/27 10:01:46;;;;;;;3.95;3.10;;;16.40;84.50;;;17.53;37.44;98028.94;5116853;28;20220;-64
2023/04/27 10:04:45;;;;;;;4.03;3.45;;;16.90;82.00;;;17.52;37.35;98026.31;5110755;28;20206;-64
2023/04/27 10:07:19;;;;;;;3.88;3.50;;;16.70;82.30;;;17.75;35.96;98024.47;5112866;28;20752;-64
2023/04/27 10:09:53;;;;;;;4.05;3.60;;;17.10;80.50;;;17.80;37.37;98025.53;5112778;28;20627;-65
2023/04/27 10:12:28;;;;;;;4.85;3.70;;;17.20;81.80;;;17.73;39.41;98021.81;5117544;28;20287;-64
2023/04/27 10:15:13;;;;;;;4.00;3.60;;;17.10;84.90;;;17.84;36.75;98016.13;5116587;28;20204;-65
2023/04/27 10:17:51;;;;;;;6.25;3.75;;;17.30;80.70;;;17.92;36.70;98025.88;5116207;28;20501;-64
2023/04/27 10:20:33;;;;;;;5.13;4.05;;;17.30;80.20;;;17.63;36.87;98014.63;5118123;28;20275;-63
2023/04/27 10:23:06;;;;;;;5.03;4.00;;;17.10;81.00;;;17.54;38.34;98017.78;5122740;28;20205;-64
2023/04/27 10:25:42;;;;;;;5.63;4.80;;;17.00;82.40;;;17.20;36.98;98017.50;5122877;28;20292;-65
2023/04/27 10:28:17;;;;;;;4.40;3.75;;;16.70;80.10;;;17.24;38.51;98017.63;5114624;28;20225;-65
2023/04/27 10:30:50;;;;;;;3.92;3.58;;;16.50;83.20;;;17.31;38.35;98011.88;5119912;28;20551;-65
2023/04/27 10:33:23;;;;;;;3.58;3.28;;;16.60;82.50;;;17.35;38.61;98012.84;5115857;28;20563;-64
2023/04/27 10:35:59;;;;;;;4.93;3.20;;;16.60;84.50;;;17.62;38.18;98023.19;5120874;28;20205;-64
2023/04/27 10:38:32;;;;;;;5.82;3.70;;;16.80;82.90;;;17.88;37.18;98007.63;5113159;28;20278;-64
2023/04/27 10:41:14;;;;;;;4.10;3.70;;;17.30;81.60;;;17.63;38.06;98012.03;5112611;28;20228;-65
2023/04/27 10:43:47;;;;;;;6.47;4.30;;;17.10;82.20;;;17.71;37.55;98020.00;5116342;28;20296;-65
2023/04/27 10:46:20;;;;;;;7.78;4.25;;;17.20;81.50;;;17.81;36.95;98011.75;5111432;28;20332;-64
2023/04/27 10:48:53;;;;;;;4.72;3.60;;;17.10;81.50;;;17.84;37.01;98011.84;5111640;28;20641;-65
2023/04/27 10:51:27;;;;;;;5.80;3.50;;;17.10;80.70;;;17.76;37.40;98005.53;5104561;28;20922;-65
2023/04/27 10:54:01;;;;;;;4.95;3.95;;;17.10;81.60;;;17.72;37.82;98011.44;5111111;28;20577;-65
2023/04/27 10:56:35;;;;;;;5.15;3.72;;;17.00;82.30;;;17.70;37.64;98001.03;5109210;28;20589;-65